PWSweather.com
Personal Weather Stations
Station Observations
MAHIABEACH
Mahia Beach, Mahia Peninsula Hawkes Bay -NZ 4108

Mahia BeachMahia Peninsula Hawkes Bay -NZ 4108

Lat: -39.087594, Lon: 177.87261128

Elevation: 20

Station Type: ScientificSales WS1093

http://wairoa.net/mahia/index.htm

Latest ConditionsUpdated 8:30:05 PM GMT+12:12 Wednesday, Aug 20, 2014
Currently Today's Max Today's Min Today's Average
Temperature 53.4°F11.9°C 58.6°F14.8°C 52.7°F11.5°C 55.4°F13.0°C
Dew Point 53.2°F11.8°C 58.4°F14.7°C 51.1°F10.6°C 54.9°F12.7°C
Winds 2.9 mph WNW4.7 kmh WNW 12.7 mph ENE20.4 kmh ENE - 6.6 mph 10.6 kmh
Wind Gusts 8.3 mph13.4 kmh 28.9 mph46.5 kmh - -
Humidity 99% 99% 90% 98%
Pressure 29.53 in1000.0 mb 29.97 in1014.9 mb 29.50 in999.0 mb -
Precipitation - 0.11 in2.8 mm - -
Hour Temp Dew Point Humidity Winds Wind Gusts Pressure Precip Precip Rate Daily Precip Total
08:30 PM 53.4°F11.9°C 53.2°F11.8°C 99% 2.9 mph WNW4.7 kmh WNW 8.3 mph13.4 kmh 29.53 in1000.0 mb 0.00 in0.0 mm 0.00 in/hr0.0 mm/hr 0.11 in2.8 mm
08:15 PM 53.1°F11.7°C 52.8°F11.6°C 99% 1.2 mph W1.9 kmh W 6.0 mph9.7 kmh 29.52 in999.7 mb 0.00 in0.0 mm 0.00 in/hr0.0 mm/hr 0.11 in2.8 mm
08:00 PM 52.7°F11.5°C 52.4°F11.3°C 99% 0.5 mph SW0.8 kmh SW 3.1 mph5.0 kmh 29.52 in999.7 mb 0.00 in0.0 mm 0.00 in/hr0.0 mm/hr 0.11 in2.8 mm
07:45 PM 53.2°F11.8°C 53.0°F11.7°C 99% 2.0 mph NW3.2 kmh NW 4.5 mph7.2 kmh 29.52 in999.7 mb 0.00 in0.0 mm 0.00 in/hr0.0 mm/hr 0.11 in2.8 mm
07:30 PM 53.4°F11.9°C 53.2°F11.8°C 99% 0.4 mph NW0.6 kmh NW 3.1 mph5.0 kmh 29.52 in999.7 mb 0.00 in0.0 mm 0.00 in/hr0.0 mm/hr 0.11 in2.8 mm
07:15 PM 53.6°F12.0°C 53.3°F11.8°C 99% 0.2 mph WSW0.3 kmh WSW 2.2 mph3.5 kmh 29.52 in999.7 mb 0.00 in0.0 mm 0.00 in/hr0.0 mm/hr 0.11 in2.8 mm
07:00 PM 54.0°F12.2°C 53.7°F12.1°C 99% 1.4 mph WSW2.3 kmh WSW 5.4 mph8.7 kmh 29.52 in999.7 mb 0.00 in0.0 mm 0.00 in/hr0.0 mm/hr 0.11 in2.8 mm
06:45 PM 54.3°F12.4°C 54.1°F12.3°C 99% 3.4 mph WSW5.5 kmh WSW 7.6 mph12.2 kmh 29.51 in999.3 mb 0.00 in0.0 mm 0.00 in/hr0.0 mm/hr 0.11 in2.8 mm
06:30 PM 54.0°F12.2°C 53.7°F12.1°C 99% 3.1 mph WSW5.0 kmh WSW 7.6 mph12.2 kmh 29.51 in999.3 mb 0.00 in0.0 mm 0.00 in/hr0.0 mm/hr 0.11 in2.8 mm
06:15 PM 54.1°F12.3°C 53.9°F12.2°C 99% 3.3 mph WSW5.3 kmh WSW 7.6 mph12.2 kmh 29.51 in999.3 mb 0.00 in0.0 mm 0.00 in/hr0.0 mm/hr 0.11 in2.8 mm
06:00 PM 53.8°F12.1°C 53.5°F11.9°C 99% 3.4 mph SW5.5 kmh SW 9.2 mph14.8 kmh 29.51 in999.3 mb 0.00 in0.0 mm 0.00 in/hr0.0 mm/hr 0.11 in2.8 mm
05:45 PM 54.5°F12.5°C 54.2°F12.3°C 99% 2.1 mph WSW3.4 kmh WSW 6.9 mph11.1 kmh 29.50 in999.0 mb 0.00 in0.0 mm 0.00 in/hr0.0 mm/hr 0.11 in2.8 mm
05:30 PM 54.0°F12.2°C 53.7°F12.1°C 99% 1.4 mph SW2.3 kmh SW 5.4 mph8.7 kmh 29.50 in999.0 mb 0.00 in0.0 mm 0.00 in/hr0.0 mm/hr 0.11 in2.8 mm
05:15 PM 54.3°F12.4°C 54.1°F12.3°C 99% 2.4 mph SW3.9 kmh SW 6.0 mph9.7 kmh 29.51 in999.3 mb 0.00 in0.0 mm 0.00 in/hr0.0 mm/hr 0.11 in2.8 mm
05:00 PM 54.3°F12.4°C 54.1°F12.3°C 99% 2.2 mph SW3.5 kmh SW 6.0 mph9.7 kmh 29.50 in999.0 mb 0.00 in0.0 mm 0.00 in/hr0.0 mm/hr 0.11 in2.8 mm
04:45 PM 54.1°F12.3°C 53.9°F12.2°C 99% 2.0 mph SW3.2 kmh SW 6.0 mph9.7 kmh 29.52 in999.7 mb 0.00 in0.0 mm 0.00 in/hr0.0 mm/hr 0.11 in2.8 mm
04:30 PM 54.9°F12.7°C 54.6°F12.6°C 99% 3.3 mph WSW5.3 kmh WSW 9.2 mph14.8 kmh 29.52 in999.7 mb 0.00 in0.0 mm 0.00 in/hr0.0 mm/hr 0.11 in2.8 mm
04:15 PM 55.8°F13.2°C 55.5°F13.1°C 99% 5.0 mph WSW8.0 kmh WSW 11.4 mph18.3 kmh 29.52 in999.7 mb 0.01 in0.3 mm 0.00 in/hr0.0 mm/hr 0.11 in2.8 mm
04:00 PM 58.6°F14.8°C 58.4°F14.7°C 99% 3.2 mph NE5.1 kmh NE 11.4 mph18.3 kmh 29.51 in999.3 mb 0.01 in0.3 mm 0.00 in/hr0.0 mm/hr 0.11 in2.8 mm
03:45 PM 58.3°F14.6°C 58.0°F14.4°C 99% 5.0 mph NE8.0 kmh NE 15.9 mph25.6 kmh 29.51 in999.3 mb 0.01 in0.3 mm 0.00 in/hr0.0 mm/hr 0.11 in2.8 mm
03:30 PM 57.6°F14.2°C 57.3°F14.1°C 99% 5.6 mph NE9.0 kmh NE 15.2 mph24.5 kmh 29.51 in999.3 mb 0.01 in0.3 mm 0.04 in/hr1.0 mm/hr 0.11 in2.8 mm
03:15 PM 58.6°F14.8°C 58.4°F14.7°C 99% 6.4 mph NE10.3 kmh NE 14.5 mph23.3 kmh 29.52 in999.7 mb 0.00 in0.0 mm 0.00 in/hr0.0 mm/hr 0.09 in2.3 mm
03:00 PM 58.1°F14.5°C 57.8°F14.3°C 99% 7.5 mph NNE12.1 kmh NNE 15.9 mph25.6 kmh 29.52 in999.7 mb 0.00 in0.0 mm 0.00 in/hr0.0 mm/hr 0.09 in2.3 mm
02:45 PM 58.1°F14.5°C 57.8°F14.3°C 99% 7.4 mph NE11.9 kmh NE 15.9 mph25.6 kmh 29.53 in1000.0 mb 0.00 in0.0 mm 0.00 in/hr0.0 mm/hr 0.09 in2.3 mm
02:15 PM 57.7°F14.3°C 57.5°F14.2°C 99% 6.8 mph NE10.9 kmh NE 16.8 mph27.0 kmh 29.53 in1000.0 mb 0.00 in0.0 mm 0.00 in/hr0.0 mm/hr 0.09 in2.3 mm
02:00 PM 57.0°F13.9°C 56.8°F13.8°C 99% 8.8 mph NE14.2 kmh NE 20.6 mph33.2 kmh 29.55 in1000.7 mb 0.01 in0.3 mm 0.00 in/hr0.0 mm/hr 0.09 in2.3 mm
01:45 PM 57.6°F14.2°C 57.3°F14.1°C 99% 6.3 mph NE10.1 kmh NE 15.9 mph25.6 kmh 29.55 in1000.7 mb 0.01 in0.3 mm 0.00 in/hr0.0 mm/hr 0.09 in2.3 mm
01:30 PM 57.7°F14.3°C 57.5°F14.2°C 99% 8.0 mph NE12.9 kmh NE 20.6 mph33.2 kmh 29.57 in1001.4 mb 0.02 in0.5 mm 0.00 in/hr0.0 mm/hr 0.09 in2.3 mm
01:15 PM 57.4°F14.1°C 57.1°F13.9°C 99% 8.1 mph NE13.0 kmh NE 20.6 mph33.2 kmh 29.58 in1001.7 mb 0.04 in1.0 mm 0.08 in/hr2.0 mm/hr 0.09 in2.3 mm
01:00 PM 56.7°F13.7°C 56.4°F13.6°C 99% 7.4 mph NE11.9 kmh NE 19.0 mph30.6 kmh 29.59 in1002.0 mb 0.02 in0.5 mm 0.00 in/hr0.0 mm/hr 0.08 in2.0 mm
12:45 PM 57.2°F14.0°C 56.9°F13.8°C 99% 9.6 mph NE15.4 kmh NE 21.3 mph34.3 kmh 29.60 in1002.4 mb 0.02 in0.5 mm 0.04 in/hr1.0 mm/hr 0.08 in2.0 mm
12:30 PM 56.7°F13.7°C 56.4°F13.6°C 99% 9.0 mph NE14.5 kmh NE 21.3 mph34.3 kmh 29.61 in1002.7 mb 0.01 in0.3 mm 0.04 in/hr1.0 mm/hr 0.07 in1.8 mm
12:15 PM 57.0°F13.9°C 56.8°F13.8°C 99% 7.6 mph NE12.2 kmh NE 22.8 mph36.7 kmh 29.63 in1003.4 mb 0.00 in0.0 mm 0.00 in/hr0.0 mm/hr 0.06 in1.5 mm
12:00 PM 58.1°F14.5°C 57.8°F14.3°C 99% 6.8 mph NE10.9 kmh NE 16.8 mph27.0 kmh 29.65 in1004.1 mb 0.00 in0.0 mm 0.00 in/hr0.0 mm/hr 0.06 in1.5 mm
11:45 AM 57.0°F13.9°C 56.8°F13.8°C 99% 10.0 mph NE16.1 kmh NE 19.7 mph31.7 kmh 29.66 in1004.4 mb 0.00 in0.0 mm 0.00 in/hr0.0 mm/hr 0.06 in1.5 mm
11:30 AM 57.2°F14.0°C 56.9°F13.8°C 99% 9.1 mph NE14.6 kmh NE 24.4 mph39.3 kmh 29.68 in1005.1 mb 0.00 in0.0 mm 0.00 in/hr0.0 mm/hr 0.06 in1.5 mm
11:15 AM 57.4°F14.1°C 57.1°F13.9°C 99% 8.5 mph NE13.7 kmh NE 21.3 mph34.3 kmh 29.69 in1005.4 mb 0.00 in0.0 mm 0.00 in/hr0.0 mm/hr 0.06 in1.5 mm
11:00 AM 57.9°F14.4°C 57.7°F14.3°C 99% 9.0 mph NE14.5 kmh NE 18.3 mph29.5 kmh 29.69 in1005.4 mb 0.00 in0.0 mm 0.00 in/hr0.0 mm/hr 0.06 in1.5 mm
10:45 AM 57.9°F14.4°C 57.7°F14.3°C 99% 10.7 mph NE17.2 kmh NE 22.8 mph36.7 kmh 29.69 in1005.4 mb 0.00 in0.0 mm 0.00 in/hr0.0 mm/hr 0.06 in1.5 mm
10:30 AM 57.6°F14.2°C 57.3°F14.1°C 99% 11.4 mph NE18.3 kmh NE 23.5 mph37.8 kmh 29.70 in1005.8 mb 0.00 in0.0 mm 0.00 in/hr0.0 mm/hr 0.06 in1.5 mm
10:15 AM 57.2°F14.0°C 56.9°F13.8°C 99% 10.3 mph NE16.6 kmh NE 22.8 mph36.7 kmh 29.70 in1005.8 mb 0.00 in0.0 mm 0.00 in/hr0.0 mm/hr 0.06 in1.5 mm
10:00 AM 57.0°F13.9°C 56.8°F13.8°C 99% 11.1 mph NE17.9 kmh NE 22.8 mph36.7 kmh 29.71 in1006.1 mb 0.00 in0.0 mm 0.00 in/hr0.0 mm/hr 0.06 in1.5 mm
09:45 AM 56.5°F13.6°C 56.2°F13.4°C 99% 10.3 mph NE16.6 kmh NE 25.1 mph40.4 kmh 29.72 in1006.4 mb 0.00 in0.0 mm 0.00 in/hr0.0 mm/hr 0.06 in1.5 mm
09:30 AM 55.4°F13.0°C 55.1°F12.8°C 99% 11.9 mph NE19.2 kmh NE 25.9 mph41.7 kmh 29.73 in1006.8 mb 0.00 in0.0 mm 0.00 in/hr0.0 mm/hr 0.06 in1.5 mm
09:15 AM 55.2°F12.9°C 55.0°F12.8°C 99% 12.4 mph NNE20.0 kmh NNE 26.6 mph42.8 kmh 29.72 in1006.4 mb 0.00 in0.0 mm 0.00 in/hr0.0 mm/hr 0.06 in1.5 mm
09:00 AM 55.2°F12.9°C 55.0°F12.8°C 99% 9.5 mph NE15.3 kmh NE 25.9 mph41.7 kmh 29.74 in1007.1 mb 0.01 in0.3 mm 0.00 in/hr0.0 mm/hr 0.06 in1.5 mm
08:45 AM 56.8°F13.8°C 56.6°F13.7°C 99% 11.2 mph NE18.0 kmh NE 26.6 mph42.8 kmh 29.75 in1007.5 mb 0.01 in0.3 mm 0.00 in/hr0.0 mm/hr 0.06 in1.5 mm
08:30 AM 55.0°F12.8°C 54.8°F12.7°C 99% 12.7 mph ENE20.4 kmh ENE 25.9 mph41.7 kmh 29.76 in1007.8 mb 0.02 in0.5 mm 0.00 in/hr0.0 mm/hr 0.06 in1.5 mm
08:15 AM 54.5°F12.5°C 54.2°F12.3°C 99% 10.0 mph NE16.1 kmh NE 24.4 mph39.3 kmh 29.77 in1008.1 mb 0.02 in0.5 mm 0.00 in/hr0.0 mm/hr 0.06 in1.5 mm
08:00 AM 54.3°F12.4°C 54.1°F12.3°C 99% 12.6 mph NE20.3 kmh NE 27.3 mph43.9 kmh 29.78 in1008.5 mb 0.02 in0.5 mm 0.00 in/hr0.0 mm/hr 0.05 in1.3 mm
07:45 AM 54.9°F12.7°C 54.6°F12.6°C 99% 10.7 mph NE17.2 kmh NE 28.9 mph46.5 kmh 29.78 in1008.5 mb 0.04 in1.0 mm 0.08 in/hr2.0 mm/hr 0.05 in1.3 mm
07:30 AM 54.5°F12.5°C 54.2°F12.3°C 99% 10.2 mph NE16.4 kmh NE 27.3 mph43.9 kmh 29.79 in1008.8 mb 0.02 in0.5 mm 0.00 in/hr0.0 mm/hr 0.04 in1.0 mm
07:15 AM 55.0°F12.8°C 54.8°F12.7°C 99% 9.4 mph NNE15.1 kmh NNE 24.4 mph39.3 kmh 29.79 in1008.8 mb 0.02 in0.5 mm 0.04 in/hr1.0 mm/hr 0.04 in1.0 mm
07:00 AM 54.5°F12.5°C 54.2°F12.3°C 99% 10.2 mph NE16.4 kmh NE 23.5 mph37.8 kmh 29.79 in1008.8 mb 0.01 in0.3 mm 0.01 in/hr0.3 mm/hr 0.02 in0.5 mm
06:45 AM 54.1°F12.3°C 53.9°F12.2°C 99% 7.3 mph NE11.7 kmh NE 19.0 mph30.6 kmh 29.80 in1009.1 mb 0.00 in0.0 mm 0.00 in/hr0.0 mm/hr 0.01 in0.3 mm
06:30 AM 53.8°F12.1°C 53.5°F11.9°C 99% 6.4 mph NE10.3 kmh NE 15.9 mph25.6 kmh 29.80 in1009.1 mb 0.00 in0.0 mm 0.00 in/hr0.0 mm/hr 0.01 in0.3 mm
06:15 AM 54.5°F12.5°C 54.2°F12.3°C 99% 6.8 mph NE10.9 kmh NE 21.3 mph34.3 kmh 29.80 in1009.1 mb 0.00 in0.0 mm 0.00 in/hr0.0 mm/hr 0.01 in0.3 mm
06:00 AM 54.5°F12.5°C 54.2°F12.3°C 99% 8.8 mph NE14.2 kmh NE 23.5 mph37.8 kmh 29.82 in1009.8 mb 0.00 in0.0 mm 0.00 in/hr0.0 mm/hr 0.01 in0.3 mm
05:45 AM 54.3°F12.4°C 54.1°F12.3°C 99% 8.7 mph NNE14.0 kmh NNE 20.6 mph33.2 kmh 29.82 in1009.8 mb 0.01 in0.3 mm 0.00 in/hr0.0 mm/hr 0.01 in0.3 mm
05:30 AM 54.3°F12.4°C 54.1°F12.3°C 99% 7.0 mph NNE11.3 kmh NNE 21.3 mph34.3 kmh 29.83 in1010.2 mb 0.01 in0.3 mm 0.00 in/hr0.0 mm/hr 0.01 in0.3 mm
05:15 AM 54.3°F12.4°C 54.1°F12.3°C 99% 8.1 mph NE13.0 kmh NE 16.8 mph27.0 kmh 29.84 in1010.5 mb 0.01 in0.3 mm 0.00 in/hr0.0 mm/hr 0.01 in0.3 mm
05:00 AM 54.5°F12.5°C 54.2°F12.3°C 99% 5.5 mph NE8.9 kmh NE 13.6 mph21.9 kmh 29.84 in1010.5 mb 0.01 in0.3 mm 0.01 in/hr0.3 mm/hr 0.01 in0.3 mm
04:45 AM 54.1°F12.3°C 53.9°F12.2°C 99% 5.9 mph NE9.5 kmh NE 13.0 mph20.9 kmh 29.85 in1010.8 mb 0.00 in0.0 mm 0.00 in/hr0.0 mm/hr 0.00 in0.0 mm
04:30 AM 54.7°F12.6°C 54.4°F12.4°C 99% 6.3 mph NE10.1 kmh NE 14.5 mph23.3 kmh 29.86 in1011.2 mb 0.00 in0.0 mm 0.00 in/hr0.0 mm/hr 0.00 in0.0 mm
04:15 AM 55.0°F12.8°C 54.8°F12.7°C 99% 6.6 mph NE10.6 kmh NE 21.3 mph34.3 kmh 29.85 in1010.8 mb 0.00 in0.0 mm 0.00 in/hr0.0 mm/hr 0.00 in0.0 mm
04:00 AM 55.0°F12.8°C 54.8°F12.7°C 99% 7.5 mph NE12.1 kmh NE 19.0 mph30.6 kmh 29.86 in1011.2 mb 0.00 in0.0 mm 0.00 in/hr0.0 mm/hr 0.00 in0.0 mm
03:45 AM 55.2°F12.9°C 54.4°F12.4°C 97% 8.9 mph NE14.3 kmh NE 18.3 mph29.5 kmh 29.86 in1011.2 mb 0.00 in0.0 mm 0.00 in/hr0.0 mm/hr 0.00 in0.0 mm
03:30 AM 55.2°F12.9°C 52.6°F11.4°C 91% 8.5 mph NE13.7 kmh NE 20.6 mph33.2 kmh 29.87 in1011.5 mb 0.00 in0.0 mm 0.00 in/hr0.0 mm/hr 0.00 in0.0 mm
03:15 AM 55.0°F12.8°C 53.1°F11.7°C 93% 6.9 mph NE11.1 kmh NE 15.9 mph25.6 kmh 29.88 in1011.9 mb 0.00 in0.0 mm 0.00 in/hr0.0 mm/hr 0.00 in0.0 mm
03:00 AM 54.9°F12.7°C 54.6°F12.6°C 99% 6.9 mph NE11.1 kmh NE 18.3 mph29.5 kmh 29.89 in1012.2 mb 0.00 in0.0 mm 0.00 in/hr0.0 mm/hr 0.00 in0.0 mm
02:45 AM 55.0°F12.8°C 54.8°F12.7°C 99% 6.3 mph NE10.1 kmh NE 13.0 mph20.9 kmh 29.89 in1012.2 mb 0.00 in0.0 mm 0.00 in/hr0.0 mm/hr 0.00 in0.0 mm
02:30 AM 54.9°F12.7°C 54.6°F12.6°C 99% 6.6 mph NE10.6 kmh NE 14.5 mph23.3 kmh 29.89 in1012.2 mb 0.00 in0.0 mm 0.00 in/hr0.0 mm/hr 0.00 in0.0 mm
02:15 AM 54.7°F12.6°C 54.4°F12.4°C 99% 6.2 mph NE10.0 kmh NE 14.5 mph23.3 kmh 29.91 in1012.9 mb 0.00 in0.0 mm 0.00 in/hr0.0 mm/hr 0.00 in0.0 mm
02:00 AM 54.7°F12.6°C 54.4°F12.4°C 99% 5.8 mph NE9.3 kmh NE 14.5 mph23.3 kmh 29.91 in1012.9 mb 0.00 in0.0 mm 0.00 in/hr0.0 mm/hr 0.00 in0.0 mm
01:45 AM 54.5°F12.5°C 52.5°F11.4°C 93% 4.4 mph NNE7.1 kmh NNE 11.4 mph18.3 kmh 29.93 in1013.5 mb 0.00 in0.0 mm 0.00 in/hr0.0 mm/hr 0.00 in0.0 mm
01:30 AM 54.1°F12.3°C 51.9°F11.1°C 92% 4.3 mph NE6.9 kmh NE 11.4 mph18.3 kmh 29.94 in1013.9 mb 0.00 in0.0 mm 0.00 in/hr0.0 mm/hr 0.00 in0.0 mm
01:15 AM 54.0°F12.2°C 52.3°F11.3°C 94% 3.7 mph NE6.0 kmh NE 9.8 mph15.8 kmh 29.94 in1013.9 mb 0.00 in0.0 mm 0.00 in/hr0.0 mm/hr 0.00 in0.0 mm
01:00 AM 54.0°F12.2°C 52.0°F11.1°C 93% 4.6 mph NE7.4 kmh NE 10.7 mph17.2 kmh 29.94 in1013.9 mb 0.00 in0.0 mm 0.00 in/hr0.0 mm/hr 0.00 in0.0 mm
12:45 AM 54.0°F12.2°C 51.7°F10.9°C 92% 3.6 mph NE5.8 kmh NE 9.2 mph14.8 kmh 29.95 in1014.2 mb 0.00 in0.0 mm 0.00 in/hr0.0 mm/hr 0.00 in0.0 mm
12:30 AM 54.1°F12.3°C 51.3°F10.7°C 90% 5.0 mph NE8.0 kmh NE 13.0 mph20.9 kmh 29.96 in1014.6 mb 0.00 in0.0 mm 0.00 in/hr0.0 mm/hr 0.00 in0.0 mm
12:15 AM 54.0°F12.2°C 51.1°F10.6°C 90% 4.5 mph NE7.2 kmh NE 12.1 mph19.5 kmh 29.96 in1014.6 mb 0.00 in0.0 mm 0.00 in/hr0.0 mm/hr 0.00 in0.0 mm
12:00 AM 54.1°F12.3°C 51.3°F10.7°C 90% 4.1 mph NNE6.6 kmh NNE 10.7 mph17.2 kmh 29.97 in1014.9 mb 0.00 in0.0 mm 0.00 in/hr0.0 mm/hr 0.00 in0.0 mm